sensor_id;sensor_type;location;lat;lon;timestamp;temperature;humidity
2729;DHT22;1372;47.956;7.830;2023-11-21T00:00:41;10.10;99.90
2729;DHT22;1372;47.956;7.830;2023-11-21T00:03:12;10.10;99.90
2729;DHT22;1372;47.956;7.830;2023-11-21T00:05:43;10.00;99.90
2729;DHT22;1372;47.956;7.830;2023-11-21T00:08:12;10.00;99.90
2729;DHT22;1372;47.956;7.830;2023-11-21T00:10:41;10.00;99.90
2729;DHT22;1372;47.956;7.830;2023-11-21T00:13:11;10.00;99.90
2729;DHT22;1372;47.956;7.830;2023-11-21T00:15:42;10.00;99.90
2729;DHT22;1372;47.956;7.830;2023-11-21T00:18:11;10.00;99.90
2729;DHT22;1372;47.956;7.830;2023-11-21T00:20:42;10.10;99.90
2729;DHT22;1372;47.956;7.830;2023-11-21T00:23:11;10.10;99.90
2729;DHT22;1372;47.956;7.830;2023-11-21T00:25:40;10.00;99.90
2729;DHT22;1372;47.956;7.830;2023-11-21T00:28:09;9.90;99.90
2729;DHT22;1372;47.956;7.830;2023-11-21T00:30:38;9.90;99.90
2729;DHT22;1372;47.956;7.830;2023-11-21T00:33:09;9.90;99.90
2729;DHT22;1372;47.956;7.830;2023-11-21T00:35:39;9.90;99.90
2729;DHT22;1372;47.956;7.830;2023-11-21T00:38:09;9.90;99.90
2729;DHT22;1372;47.956;7.830;2023-11-21T00:40:38;9.90;99.90
2729;DHT22;1372;47.956;7.830;2023-11-21T00:43:07;10.00;99.90
2729;DHT22;1372;47.956;7.830;2023-11-21T00:45:36;9.90;99.90
2729;DHT22;1372;47.956;7.830;2023-11-21T00:48:05;9.90;99.90
2729;DHT22;1372;47.956;7.830;2023-11-21T00:50:35;9.90;99.90
2729;DHT22;1372;47.956;7.830;2023-11-21T00:53:04;9.90;99.90
2729;DHT22;1372;47.956;7.830;2023-11-21T00:55:36;10.00;99.90
2729;DHT22;1372;47.956;7.830;2023-11-21T00:58:07;10.00;99.90
2729;DHT22;1372;47.956;7.830;2023-11-21T01:00:36;10.00;99.90
2729;DHT22;1372;47.956;7.830;2023-11-21T01:03:07;10.00;99.90
2729;DHT22;1372;47.956;7.830;2023-11-21T01:05:36;9.90;99.90
2729;DHT22;1372;47.956;7.830;2023-11-21T01:08:07;9.90;99.90
2729;DHT22;1372;47.956;7.830;2023-11-21T01:10:37;9.90;99.90
2729;DHT22;1372;47.956;7.830;2023-11-21T01:13:07;9.90;99.90
2729;DHT22;1372;47.956;7.830;2023-11-21T01:15:38;9.80;99.90
2729;DHT22;1372;47.956;7.830;2023-11-21T01:18:07;9.80;99.90
2729;DHT22;1372;47.956;7.830;2023-11-21T01:20:36;9.70;99.90
2729;DHT22;1372;47.956;7.830;2023-11-21T01:23:05;9.80;99.90
2729;DHT22;1372;47.956;7.830;2023-11-21T01:25:34;9.80;99.90
2729;DHT22;1372;47.956;7.830;2023-11-21T01:28:05;9.80;99.90
2729;DHT22;1372;47.956;7.830;2023-11-21T01:30:34;9.80;99.90
2729;DHT22;1372;47.956;7.830;2023-11-21T01:33:04;9.80;99.90
2729;DHT22;1372;47.956;7.830;2023-11-21T01:35:34;9.80;99.90
2729;DHT22;1372;47.956;7.830;2023-11-21T01:38:03;9.80;99.90
2729;DHT22;1372;47.956;7.830;2023-11-21T01:40:32;9.70;99.90
2729;DHT22;1372;47.956;7.830;2023-11-21T01:43:01;9.80;99.90
2729;DHT22;1372;47.956;7.830;2023-11-21T01:45:32;9.70;99.90
2729;DHT22;1372;47.956;7.830;2023-11-21T01:48:02;9.70;99.90
2729;DHT22;1372;47.956;7.830;2023-11-21T01:50:34;9.70;99.90
2729;DHT22;1372;47.956;7.830;2023-11-21T01:53:03;9.80;99.90
2729;DHT22;1372;47.956;7.830;2023-11-21T01:55:34;9.80;99.90
2729;DHT22;1372;47.956;7.830;2023-11-21T01:58:06;9.80;99.90
2729;DHT22;1372;47.956;7.830;2023-11-21T02:00:36;9.70;99.90
2729;DHT22;1372;47.956;7.830;2023-11-21T02:03:08;9.80;99.90
2729;DHT22;1372;47.956;7.830;2023-11-21T02:05:37;9.80;99.90
2729;DHT22;1372;47.956;7.830;2023-11-21T02:08:06;9.80;99.90
2729;DHT22;1372;47.956;7.830;2023-11-21T02:10:38;9.80;99.90
2729;DHT22;1372;47.956;7.830;2023-11-21T02:13:08;9.70;99.90
2729;DHT22;1372;47.956;7.830;2023-11-21T02:15:39;9.80;99.90
2729;DHT22;1372;47.956;7.830;2023-11-21T02:18:08;9.80;99.90
2729;DHT22;1372;47.956;7.830;2023-11-21T02:20:38;9.90;99.90
2729;DHT22;1372;47.956;7.830;2023-11-21T02:23:12;9.80;99.90
2729;DHT22;1372;47.956;7.830;2023-11-21T02:25:42;9.70;99.90
2729;DHT22;1372;47.956;7.830;2023-11-21T02:28:11;9.70;99.90
2729;DHT22;1372;47.956;7.830;2023-11-21T02:30:42;9.70;99.90
2729;DHT22;1372;47.956;7.830;2023-11-21T02:33:11;9.60;99.90
2729;DHT22;1372;47.956;7.830;2023-11-21T02:35:43;9.60;99.90
2729;DHT22;1372;47.956;7.830;2023-11-21T02:38:13;9.60;99.90
2729;DHT22;1372;47.956;7.830;2023-11-21T02:40:43;9.60;99.90
2729;DHT22;1372;47.956;7.830;2023-11-21T02:43:12;9.60;99.90
2729;DHT22;1372;47.956;7.830;2023-11-21T02:45:41;9.60;99.90
2729;DHT22;1372;47.956;7.830;2023-11-21T02:48:10;9.60;99.90
2729;DHT22;1372;47.956;7.830;2023-11-21T02:50:39;9.60;99.90
2729;DHT22;1372;47.956;7.830;2023-11-21T02:53:10;9.70;99.90
2729;DHT22;1372;47.956;7.830;2023-11-21T02:55:43;9.70;99.90
2729;DHT22;1372;47.956;7.830;2023-11-21T02:58:14;9.70;99.90
2729;DHT22;1372;47.956;7.830;2023-11-21T03:00:43;9.70;99.90
2729;DHT22;1372;47.956;7.830;2023-11-21T03:03:12;9.70;99.90
2729;DHT22;1372;47.956;7.830;2023-11-21T03:05:42;9.70;99.90
2729;DHT22;1372;47.956;7.830;2023-11-21T03:08:11;9.60;99.90
2729;DHT22;1372;47.956;7.830;2023-11-21T03:10:39;9.60;99.90
2729;DHT22;1372;47.956;7.830;2023-11-21T03:13:13;9.60;99.90
2729;DHT22;1372;47.956;7.830;2023-11-21T03:15:42;9.70;99.90
2729;DHT22;1372;47.956;7.830;2023-11-21T03:18:11;9.70;99.90
2729;DHT22;1372;47.956;7.830;2023-11-21T03:20:40;9.60;99.90
2729;DHT22;1372;47.956;7.830;2023-11-21T03:23:12;9.50;99.90
2729;DHT22;1372;47.956;7.830;2023-11-21T03:25:43;9.60;99.90
2729;DHT22;1372;47.956;7.830;2023-11-21T03:28:13;9.50;99.90
2729;DHT22;1372;47.956;7.830;2023-11-21T03:30:45;9.60;99.90
2729;DHT22;1372;47.956;7.830;2023-11-21T03:33:16;9.60;99.90
2729;DHT22;1372;47.956;7.830;2023-11-21T03:35:47;9.60;99.90
2729;DHT22;1372;47.956;7.830;2023-11-21T03:38:16;9.60;99.90
2729;DHT22;1372;47.956;7.830;2023-11-21T03:40:45;9.60;99.90
2729;DHT22;1372;47.956;7.830;2023-11-21T03:43:15;9.60;99.90
2729;DHT22;1372;47.956;7.830;2023-11-21T03:45:44;9.60;99.90
2729;DHT22;1372;47.956;7.830;2023-11-21T03:48:13;9.60;99.90
2729;DHT22;1372;47.956;7.830;2023-11-21T03:50:42;9.70;99.90
2729;DHT22;1372;47.956;7.830;2023-11-21T03:53:10;9.60;99.90
2729;DHT22;1372;47.956;7.830;2023-11-21T03:55:39;9.60;99.90
2729;DHT22;1372;47.956;7.830;2023-11-21T03:58:08;9.50;99.90
2729;DHT22;1372;47.956;7.830;2023-11-21T04:00:38;9.60;99.90
2729;DHT22;1372;47.956;7.830;2023-11-21T04:03:08;9.50;99.90
2729;DHT22;1372;47.956;7.830;2023-11-21T04:05:37;9.50;99.90
2729;DHT22;1372;47.956;7.830;2023-11-21T04:08:05;9.50;99.90
2729;DHT22;1372;47.956;7.830;2023-11-21T04:10:34;9.50;99.90
2729;DHT22;1372;47.956;7.830;2023-11-21T04:13:03;9.40;99.90
2729;DHT22;1372;47.956;7.830;2023-11-21T04:15:32;9.50;99.90
2729;DHT22;1372;47.956;7.830;2023-11-21T04:18:02;9.50;99.90
2729;DHT22;1372;47.956;7.830;2023-11-21T04:20:34;9.50;99.90
2729;DHT22;1372;47.956;7.830;2023-11-21T04:23:03;9.50;99.90
2729;DHT22;1372;47.956;7.830;2023-11-21T04:25:34;9.50;99.90
2729;DHT22;1372;47.956;7.830;2023-11-21T04:28:03;9.40;99.90
2729;DHT22;1372;47.956;7.830;2023-11-21T04:30:32;9.40;99.90
2729;DHT22;1372;47.956;7.830;2023-11-21T04:33:03;9.40;99.90
2729;DHT22;1372;47.956;7.830;2023-11-21T04:35:32;9.40;99.90
2729;DHT22;1372;47.956;7.830;2023-11-21T04:38:00;9.40;99.90
2729;DHT22;1372;47.956;7.830;2023-11-21T04:40:30;9.40;99.90
2729;DHT22;1372;47.956;7.830;2023-11-21T04:42:59;9.40;99.90
2729;DHT22;1372;47.956;7.830;2023-11-21T04:45:29;9.30;99.90
2729;DHT22;1372;47.956;7.830;2023-11-21T04:47:58;9.30;99.90
2729;DHT22;1372;47.956;7.830;2023-11-21T04:50:28;9.30;99.90
2729;DHT22;1372;47.956;7.830;2023-11-21T04:52:57;9.30;99.90
2729;DHT22;1372;47.956;7.830;2023-11-21T04:55:26;9.30;99.90
2729;DHT22;1372;47.956;7.830;2023-11-21T04:57:57;9.30;99.90
2729;DHT22;1372;47.956;7.830;2023-11-21T05:00:26;9.30;99.90
2729;DHT22;1372;47.956;7.830;2023-11-21T05:02:56;9.40;99.90
2729;DHT22;1372;47.956;7.830;2023-11-21T05:05:25;9.40;99.90
2729;DHT22;1372;47.956;7.830;2023-11-21T05:07:57;9.40;99.90
2729;DHT22;1372;47.956;7.830;2023-11-21T05:10:25;9.40;99.90
2729;DHT22;1372;47.956;7.830;2023-11-21T05:12:55;9.40;99.90
2729;DHT22;1372;47.956;7.830;2023-11-21T05:15:26;9.40;99.90
2729;DHT22;1372;47.956;7.830;2023-11-21T05:17:57;9.40;99.90
2729;DHT22;1372;47.956;7.830;2023-11-21T05:20:29;9.40;99.90
2729;DHT22;1372;47.956;7.830;2023-11-21T05:22:57;9.40;99.90
2729;DHT22;1372;47.956;7.830;2023-11-21T05:25:27;9.50;99.90
2729;DHT22;1372;47.956;7.830;2023-11-21T05:27:55;9.60;99.90
2729;DHT22;1372;47.956;7.830;2023-11-21T05:30:28;9.60;99.90
2729;DHT22;1372;47.956;7.830;2023-11-21T05:32:57;9.60;99.90
2729;DHT22;1372;47.956;7.830;2023-11-21T05:35:26;9.50;99.90
2729;DHT22;1372;47.956;7.830;2023-11-21T05:37:59;9.50;99.90
2729;DHT22;1372;47.956;7.830;2023-11-21T05:40:28;9.50;99.90
2729;DHT22;1372;47.956;7.830;2023-11-21T05:42:59;9.50;99.90
2729;DHT22;1372;47.956;7.830;2023-11-21T05:45:27;9.50;99.90
2729;DHT22;1372;47.956;7.830;2023-11-21T05:47:58;9.40;99.90
2729;DHT22;1372;47.956;7.830;2023-11-21T05:50:27;9.30;99.90
2729;DHT22;1372;47.956;7.830;2023-11-21T05:52:56;9.40;99.90
2729;DHT22;1372;47.956;7.830;2023-11-21T05:55:28;9.30;99.90
2729;DHT22;1372;47.956;7.830;2023-11-21T05:57:57;9.30;99.90
2729;DHT22;1372;47.956;7.830;2023-11-21T06:00:26;9.30;99.90
2729;DHT22;1372;47.956;7.830;2023-11-21T06:02:55;9.20;99.90
2729;DHT22;1372;47.956;7.830;2023-11-21T06:05:25;9.10;99.90
2729;DHT22;1372;47.956;7.830;2023-11-21T06:07:55;9.10;99.90
2729;DHT22;1372;47.956;7.830;2023-11-21T06:10:27;9.10;99.90
2729;DHT22;1372;47.956;7.830;2023-11-21T06:12:57;9.10;99.90
2729;DHT22;1372;47.956;7.830;2023-11-21T06:15:28;9.10;99.90
2729;DHT22;1372;47.956;7.830;2023-11-21T06:17:57;9.10;99.90
2729;DHT22;1372;47.956;7.830;2023-11-21T06:20:27;9.20;99.90
2729;DHT22;1372;47.956;7.830;2023-11-21T06:22:58;9.20;99.90
2729;DHT22;1372;47.956;7.830;2023-11-21T06:25:35;9.10;99.90
2729;DHT22;1372;47.956;7.830;2023-11-21T06:28:04;9.10;99.90
2729;DHT22;1372;47.956;7.830;2023-11-21T06:30:35;9.10;99.90
2729;DHT22;1372;47.956;7.830;2023-11-21T06:33:05;9.10;99.90
2729;DHT22;1372;47.956;7.830;2023-11-21T06:35:37;9.10;99.90
2729;DHT22;1372;47.956;7.830;2023-11-21T06:38:09;9.10;99.90
2729;DHT22;1372;47.956;7.830;2023-11-21T06:40:40;9.10;99.90
2729;DHT22;1372;47.956;7.830;2023-11-21T06:43:08;9.10;99.90
2729;DHT22;1372;47.956;7.830;2023-11-21T06:45:39;9.10;99.90
2729;DHT22;1372;47.956;7.830;2023-11-21T06:48:08;9.10;99.90
2729;DHT22;1372;47.956;7.830;2023-11-21T06:50:37;9.10;99.90
2729;DHT22;1372;47.956;7.830;2023-11-21T06:53:06;9.00;99.90
2729;DHT22;1372;47.956;7.830;2023-11-21T06:55:35;9.00;99.90
2729;DHT22;1372;47.956;7.830;2023-11-21T06:58:06;8.90;99.90
2729;DHT22;1372;47.956;7.830;2023-11-21T07:00:34;9.00;99.90
2729;DHT22;1372;47.956;7.830;2023-11-21T07:03:03;8.90;99.90
2729;DHT22;1372;47.956;7.830;2023-11-21T07:05:32;9.00;99.90
2729;DHT22;1372;47.956;7.830;2023-11-21T07:08:01;9.00;99.90
2729;DHT22;1372;47.956;7.830;2023-11-21T07:10:31;9.00;99.90
2729;DHT22;1372;47.956;7.830;2023-11-21T07:13:00;8.90;99.90
2729;DHT22;1372;47.956;7.830;2023-11-21T07:15:31;8.90;99.90
2729;DHT22;1372;47.956;7.830;2023-11-21T07:18:00;8.90;99.90
2729;DHT22;1372;47.956;7.830;2023-11-21T07:20:28;8.90;99.90
2729;DHT22;1372;47.956;7.830;2023-11-21T07:23:00;9.00;99.90
2729;DHT22;1372;47.956;7.830;2023-11-21T07:25:31;9.00;99.90
2729;DHT22;1372;47.956;7.830;2023-11-21T07:28:00;9.00;99.90
2729;DHT22;1372;47.956;7.830;2023-11-21T07:30:37;9.00;99.90
2729;DHT22;1372;47.956;7.830;2023-11-21T07:33:07;9.00;99.90
2729;DHT22;1372;47.956;7.830;2023-11-21T07:35:36;9.10;99.90
2729;DHT22;1372;47.956;7.830;2023-11-21T07:38:05;9.10;99.90
2729;DHT22;1372;47.956;7.830;2023-11-21T07:40:34;9.00;99.90
2729;DHT22;1372;47.956;7.830;2023-11-21T07:43:03;8.90;99.90
2729;DHT22;1372;47.956;7.830;2023-11-21T07:45:33;8.90;99.90
2729;DHT22;1372;47.956;7.830;2023-11-21T07:48:04;9.00;99.90
2729;DHT22;1372;47.956;7.830;2023-11-21T07:50:34;9.10;99.90
2729;DHT22;1372;47.956;7.830;2023-11-21T07:53:03;9.10;99.90
2729;DHT22;1372;47.956;7.830;2023-11-21T07:55:33;9.00;99.90
2729;DHT22;1372;47.956;7.830;2023-11-21T07:58:02;9.20;99.90
2729;DHT22;1372;47.956;7.830;2023-11-21T08:00:31;9.30;99.90
2729;DHT22;1372;47.956;7.830;2023-11-21T08:03:00;9.30;99.90
2729;DHT22;1372;47.956;7.830;2023-11-21T08:05:36;9.30;99.90
2729;DHT22;1372;47.956;7.830;2023-11-21T08:08:06;9.20;99.90
2729;DHT22;1372;47.956;7.830;2023-11-21T08:10:36;9.30;99.90
2729;DHT22;1372;47.956;7.830;2023-11-21T08:13:06;9.40;99.90
2729;DHT22;1372;47.956;7.830;2023-11-21T08:15:36;9.40;99.90
2729;DHT22;1372;47.956;7.830;2023-11-21T08:18:06;9.40;99.90
2729;DHT22;1372;47.956;7.830;2023-11-21T08:20:37;9.40;99.90
2729;DHT22;1372;47.956;7.830;2023-11-21T08:23:07;9.50;99.90
2729;DHT22;1372;47.956;7.830;2023-11-21T08:25:36;9.50;99.90
2729;DHT22;1372;47.956;7.830;2023-11-21T08:28:05;9.40;99.90
2729;DHT22;1372;47.956;7.830;2023-11-21T08:30:34;9.30;99.90
2729;DHT22;1372;47.956;7.830;2023-11-21T08:33:03;9.30;99.90
2729;DHT22;1372;47.956;7.830;2023-11-21T08:35:33;9.30;99.90
2729;DHT22;1372;47.956;7.830;2023-11-21T08:38:03;9.30;99.90
2729;DHT22;1372;47.956;7.830;2023-11-21T08:40:33;9.40;99.90
2729;DHT22;1372;47.956;7.830;2023-11-21T08:43:03;9.40;99.90
2729;DHT22;1372;47.956;7.830;2023-11-21T08:45:35;9.50;99.90
2729;DHT22;1372;47.956;7.830;2023-11-21T08:48:04;9.50;99.90
2729;DHT22;1372;47.956;7.830;2023-11-21T08:50:36;9.50;99.90
2729;DHT22;1372;47.956;7.830;2023-11-21T08:53:05;9.50;99.90
2729;DHT22;1372;47.956;7.830;2023-11-21T08:55:34;9.60;99.90
2729;DHT22;1372;47.956;7.830;2023-11-21T08:58:04;9.70;99.90
2729;DHT22;1372;47.956;7.830;2023-11-21T09:00:36;9.70;99.90
2729;DHT22;1372;47.956;7.830;2023-11-21T09:03:06;9.60;99.90
2729;DHT22;1372;47.956;7.830;2023-11-21T09:05:39;9.70;99.90
2729;DHT22;1372;47.956;7.830;2023-11-21T09:08:08;9.70;99.90
2729;DHT22;1372;47.956;7.830;2023-11-21T09:10:38;9.80;99.90
2729;DHT22;1372;47.956;7.830;2023-11-21T09:13:09;9.80;99.90
2729;DHT22;1372;47.956;7.830;2023-11-21T09:15:39;9.70;99.90
2729;DHT22;1372;47.956;7.830;2023-11-21T09:18:09;9.70;99.90
2729;DHT22;1372;47.956;7.830;2023-11-21T09:20:40;9.70;99.90
2729;DHT22;1372;47.956;7.830;2023-11-21T09:23:10;9.80;99.90
2729;DHT22;1372;47.956;7.830;2023-11-21T09:25:38;9.80;99.90
2729;DHT22;1372;47.956;7.830;2023-11-21T09:28:07;9.80;99.90
2729;DHT22;1372;47.956;7.830;2023-11-21T09:30:39;9.80;99.90
2729;DHT22;1372;47.956;7.830;2023-11-21T09:33:09;9.80;99.90
2729;DHT22;1372;47.956;7.830;2023-11-21T09:35:40;9.80;99.90
2729;DHT22;1372;47.956;7.830;2023-11-21T09:38:11;9.80;99.90
2729;DHT22;1372;47.956;7.830;2023-11-21T09:40:40;9.80;99.90
2729;DHT22;1372;47.956;7.830;2023-11-21T09:43:14;9.80;99.90
2729;DHT22;1372;47.956;7.830;2023-11-21T09:45:46;9.80;99.90
2729;DHT22;1372;47.956;7.830;2023-11-21T09:48:18;9.80;99.90
2729;DHT22;1372;47.956;7.830;2023-11-21T09:50:51;9.80;99.90
2729;DHT22;1372;47.956;7.830;2023-11-21T09:53:22;9.80;99.90
2729;DHT22;1372;47.956;7.830;2023-11-21T09:55:52;9.70;99.90
2729;DHT22;1372;47.956;7.830;2023-11-21T09:58:22;9.80;99.90
2729;DHT22;1372;47.956;7.830;2023-11-21T10:00:53;9.80;99.90
2729;DHT22;1372;47.956;7.830;2023-11-21T10:03:24;9.80;99.90
2729;DHT22;1372;47.956;7.830;2023-11-21T10:05:58;9.80;99.90
2729;DHT22;1372;47.956;7.830;2023-11-21T10:08:29;9.80;99.90
2729;DHT22;1372;47.956;7.830;2023-11-21T10:11:11;9.90;99.90
2729;DHT22;1372;47.956;7.830;2023-11-21T10:13:42;10.00;99.90
2729;DHT22;1372;47.956;7.830;2023-11-21T10:16:15;9.90;99.90
2729;DHT22;1372;47.956;7.830;2023-11-21T10:18:52;9.90;99.90
2729;DHT22;1372;47.956;7.830;2023-11-21T10:21:32;9.80;99.90
2729;DHT22;1372;47.956;7.830;2023-11-21T10:24:02;9.70;99.90
2729;DHT22;1372;47.956;7.830;2023-11-21T10:26:32;9.70;99.90
2729;DHT22;1372;47.956;7.830;2023-11-21T10:29:10;9.70;99.90
2729;DHT22;1372;47.956;7.830;2023-11-21T10:31:44;9.70;99.90
2729;DHT22;1372;47.956;7.830;2023-11-21T10:34:14;9.60;99.90
2729;DHT22;1372;47.956;7.830;2023-11-21T10:36:45;9.60;99.90
2729;DHT22;1372;47.956;7.830;2023-11-21T10:39:16;9.50;99.90
2729;DHT22;1372;47.956;7.830;2023-11-21T10:41:47;9.60;99.90
2729;DHT22;1372;47.956;7.830;2023-11-21T10:44:19;9.60;99.90
2729;DHT22;1372;47.956;7.830;2023-11-21T10:46:52;9.60;99.90
2729;DHT22;1372;47.956;7.830;2023-11-21T10:49:25;9.70;99.90
2729;DHT22;1372;47.956;7.830;2023-11-21T10:51:56;9.70;99.90
2729;DHT22;1372;47.956;7.830;2023-11-21T10:54:26;9.70;99.90
2729;DHT22;1372;47.956;7.830;2023-11-21T10:56:57;9.70;99.90
2729;DHT22;1372;47.956;7.830;2023-11-21T10:59:30;9.60;99.90
2729;DHT22;1372;47.956;7.830;2023-11-21T11:02:12;9.50;99.90
2729;DHT22;1372;47.956;7.830;2023-11-21T11:04:49;9.60;99.90
2729;DHT22;1372;47.956;7.830;2023-11-21T11:07:21;9.60;99.90
2729;DHT22;1372;47.956;7.830;2023-11-21T11:09:54;9.60;99.90
2729;DHT22;1372;47.956;7.830;2023-11-21T11:12:24;9.60;99.90
2729;DHT22;1372;47.956;7.830;2023-11-21T11:14:55;9.60;99.90
2729;DHT22;1372;47.956;7.830;2023-11-21T11:17:24;9.60;99.90
2729;DHT22;1372;47.956;7.830;2023-11-21T11:19:54;9.50;99.90
2729;DHT22;1372;47.956;7.830;2023-11-21T11:22:34;9.60;99.90
2729;DHT22;1372;47.956;7.830;2023-11-21T11:25:49;9.50;99.90
2729;DHT22;1372;47.956;7.830;2023-11-21T11:28:41;9.50;99.90
2729;DHT22;1372;47.956;7.830;2023-11-21T11:31:27;9.50;99.90
2729;DHT22;1372;47.956;7.830;2023-11-21T11:34:10;9.40;99.90
2729;DHT22;1372;47.956;7.830;2023-11-21T11:36:48;9.40;99.90
2729;DHT22;1372;47.956;7.830;2023-11-21T11:39:29;9.40;99.90
2729;DHT22;1372;47.956;7.830;2023-11-21T11:42:02;9.50;99.90
2729;DHT22;1372;47.956;7.830;2023-11-21T11:44:50;9.40;99.90
2729;DHT22;1372;47.956;7.830;2023-11-21T11:47:23;9.30;99.90
2729;DHT22;1372;47.956;7.830;2023-11-21T11:50:01;9.30;99.90
2729;DHT22;1372;47.956;7.830;2023-11-21T11:52:41;9.20;99.90
2729;DHT22;1372;47.956;7.830;2023-11-21T11:55:21;9.40;99.90
2729;DHT22;1372;47.956;7.830;2023-11-21T11:57:52;9.40;99.90
2729;DHT22;1372;47.956;7.830;2023-11-21T12:00:33;9.40;99.90
2729;DHT22;1372;47.956;7.830;2023-11-21T12:03:07;9.20;99.90
2729;DHT22;1372;47.956;7.830;2023-11-21T12:05:37;9.10;99.90
2729;DHT22;1372;47.956;7.830;2023-11-21T12:08:07;9.20;99.90
2729;DHT22;1372;47.956;7.830;2023-11-21T12:10:39;9.30;99.90
2729;DHT22;1372;47.956;7.830;2023-11-21T12:13:10;9.40;99.90
2729;DHT22;1372;47.956;7.830;2023-11-21T12:15:40;9.40;99.90
2729;DHT22;1372;47.956;7.830;2023-11-21T12:18:12;9.40;99.90
2729;DHT22;1372;47.956;7.830;2023-11-21T12:20:43;9.50;99.90
2729;DHT22;1372;47.956;7.830;2023-11-21T12:23:16;9.50;99.90
2729;DHT22;1372;47.956;7.830;2023-11-21T12:25:46;9.40;99.90
2729;DHT22;1372;47.956;7.830;2023-11-21T12:28:15;9.40;99.90
2729;DHT22;1372;47.956;7.830;2023-11-21T12:30:44;9.30;99.90
2729;DHT22;1372;47.956;7.830;2023-11-21T12:33:14;9.50;99.90
2729;DHT22;1372;47.956;7.830;2023-11-21T12:35:45;9.40;99.90
2729;DHT22;1372;47.956;7.830;2023-11-21T12:38:13;9.50;99.90
2729;DHT22;1372;47.956;7.830;2023-11-21T12:40:46;9.60;99.90
2729;DHT22;1372;47.956;7.830;2023-11-21T12:43:15;9.50;99.90
2729;DHT22;1372;47.956;7.830;2023-11-21T12:45:46;9.60;99.90
2729;DHT22;1372;47.956;7.830;2023-11-21T12:48:15;9.50;99.90
2729;DHT22;1372;47.956;7.830;2023-11-21T12:50:51;9.50;99.90
2729;DHT22;1372;47.956;7.830;2023-11-21T12:53:20;9.40;99.90
2729;DHT22;1372;47.956;7.830;2023-11-21T12:55:51;9.50;99.90
2729;DHT22;1372;47.956;7.830;2023-11-21T12:58:22;9.50;99.90
2729;DHT22;1372;47.956;7.830;2023-11-21T13:00:52;9.50;99.90
2729;DHT22;1372;47.956;7.830;2023-11-21T13:03:21;9.40;99.90
2729;DHT22;1372;47.956;7.830;2023-11-21T13:05:54;9.50;99.90
2729;DHT22;1372;47.956;7.830;2023-11-21T13:08:25;9.50;99.90
2729;DHT22;1372;47.956;7.830;2023-11-21T13:10:57;9.60;99.90
2729;DHT22;1372;47.956;7.830;2023-11-21T13:13:29;9.60;99.90
2729;DHT22;1372;47.956;7.830;2023-11-21T13:16:00;9.60;99.90
2729;DHT22;1372;47.956;7.830;2023-11-21T13:18:32;9.70;99.90
2729;DHT22;1372;47.956;7.830;2023-11-21T13:21:02;9.70;99.90
2729;DHT22;1372;47.956;7.830;2023-11-21T13:23:37;9.80;99.90
2729;DHT22;1372;47.956;7.830;2023-11-21T13:26:08;9.80;99.90
2729;DHT22;1372;47.956;7.830;2023-11-21T13:28:39;9.80;99.90
2729;DHT22;1372;47.956;7.830;2023-11-21T13:31:13;9.80;99.90
2729;DHT22;1372;47.956;7.830;2023-11-21T13:33:53;9.80;99.90
2729;DHT22;1372;47.956;7.830;2023-11-21T13:36:26;9.80;99.90
2729;DHT22;1372;47.956;7.830;2023-11-21T13:38:59;9.90;99.90
2729;DHT22;1372;47.956;7.830;2023-11-21T13:41:35;9.80;99.90
2729;DHT22;1372;47.956;7.830;2023-11-21T13:44:06;9.80;99.90
2729;DHT22;1372;47.956;7.830;2023-11-21T13:46:43;9.70;99.90
2729;DHT22;1372;47.956;7.830;2023-11-21T13:49:13;9.80;99.90
2729;DHT22;1372;47.956;7.830;2023-11-21T13:51:43;9.80;99.90
2729;DHT22;1372;47.956;7.830;2023-11-21T13:54:15;9.80;99.90
2729;DHT22;1372;47.956;7.830;2023-11-21T13:56:48;9.70;99.90
2729;DHT22;1372;47.956;7.830;2023-11-21T13:59:20;9.70;99.90
2729;DHT22;1372;47.956;7.830;2023-11-21T14:01:52;9.80;99.90
2729;DHT22;1372;47.956;7.830;2023-11-21T14:04:26;9.90;99.90
2729;DHT22;1372;47.956;7.830;2023-11-21T14:07:22;9.80;99.90
2729;DHT22;1372;47.956;7.830;2023-11-21T14:10:00;9.70;99.90
2729;DHT22;1372;47.956;7.830;2023-11-21T14:12:30;9.80;99.90
2729;DHT22;1372;47.956;7.830;2023-11-21T14:15:04;9.90;99.90
2729;DHT22;1372;47.956;7.830;2023-11-21T14:17:36;9.90;99.90
2729;DHT22;1372;47.956;7.830;2023-11-21T14:20:11;9.80;99.90
2729;DHT22;1372;47.956;7.830;2023-11-21T14:22:43;9.90;99.90
2729;DHT22;1372;47.956;7.830;2023-11-21T14:25:13;9.80;99.90
2729;DHT22;1372;47.956;7.830;2023-11-21T14:27:44;9.80;99.90
2729;DHT22;1372;47.956;7.830;2023-11-21T14:30:12;9.80;99.90
2729;DHT22;1372;47.956;7.830;2023-11-21T14:32:45;9.80;99.90
2729;DHT22;1372;47.956;7.830;2023-11-21T14:35:15;10.00;99.90
2729;DHT22;1372;47.956;7.830;2023-11-21T14:37:44;9.80;99.90
2729;DHT22;1372;47.956;7.830;2023-11-21T14:40:14;9.80;99.90
2729;DHT22;1372;47.956;7.830;2023-11-21T14:42:50;9.90;99.90
2729;DHT22;1372;47.956;7.830;2023-11-21T14:45:21;9.90;99.90
2729;DHT22;1372;47.956;7.830;2023-11-21T14:47:53;10.00;99.90
2729;DHT22;1372;47.956;7.830;2023-11-21T14:50:34;9.80;99.90
2729;DHT22;1372;47.956;7.830;2023-11-21T14:53:21;9.80;99.90
2729;DHT22;1372;47.956;7.830;2023-11-21T14:56:10;9.90;99.90
2729;DHT22;1372;47.956;7.830;2023-11-21T14:58:46;9.80;99.90
2729;DHT22;1372;47.956;7.830;2023-11-21T15:01:16;9.80;99.90
2729;DHT22;1372;47.956;7.830;2023-11-21T15:03:54;9.80;99.90
2729;DHT22;1372;47.956;7.830;2023-11-21T15:06:23;9.70;99.90
2729;DHT22;1372;47.956;7.830;2023-11-21T15:08:55;9.70;99.90
2729;DHT22;1372;47.956;7.830;2023-11-21T15:11:56;9.70;99.90
2729;DHT22;1372;47.956;7.830;2023-11-21T15:14:32;9.60;99.90
2729;DHT22;1372;47.956;7.830;2023-11-21T15:17:03;9.70;99.90
2729;DHT22;1372;47.956;7.830;2023-11-21T15:19:34;9.60;99.90
2729;DHT22;1372;47.956;7.830;2023-11-21T15:22:05;9.60;99.90
2729;DHT22;1372;47.956;7.830;2023-11-21T15:24:34;9.60;99.90
2729;DHT22;1372;47.956;7.830;2023-11-21T15:27:04;9.50;99.90
2729;DHT22;1372;47.956;7.830;2023-11-21T15:29:39;9.50;99.90
2729;DHT22;1372;47.956;7.830;2023-11-21T15:32:09;9.50;99.90
2729;DHT22;1372;47.956;7.830;2023-11-21T15:34:38;9.50;99.90
2729;DHT22;1372;47.956;7.830;2023-11-21T15:37:08;9.60;99.90
2729;DHT22;1372;47.956;7.830;2023-11-21T15:39:39;9.50;99.90
2729;DHT22;1372;47.956;7.830;2023-11-21T15:42:08;9.60;99.90
2729;DHT22;1372;47.956;7.830;2023-11-21T15:44:39;9.60;99.90
2729;DHT22;1372;47.956;7.830;2023-11-21T15:47:08;9.60;99.90
2729;DHT22;1372;47.956;7.830;2023-11-21T15:49:38;9.70;99.90
2729;DHT22;1372;47.956;7.830;2023-11-21T15:52:07;9.60;99.90
2729;DHT22;1372;47.956;7.830;2023-11-21T15:54:38;9.50;99.90
2729;DHT22;1372;47.956;7.830;2023-11-21T15:57:07;9.60;99.90
2729;DHT22;1372;47.956;7.830;2023-11-21T15:59:39;9.60;99.90
2729;DHT22;1372;47.956;7.830;2023-11-21T16:02:11;9.80;99.90
2729;DHT22;1372;47.956;7.830;2023-11-21T16:04:43;9.80;99.90
2729;DHT22;1372;47.956;7.830;2023-11-21T16:07:13;9.80;99.90
2729;DHT22;1372;47.956;7.830;2023-11-21T16:09:42;9.70;99.90
2729;DHT22;1372;47.956;7.830;2023-11-21T16:12:11;9.60;99.90
2729;DHT22;1372;47.956;7.830;2023-11-21T16:14:41;9.50;99.90
2729;DHT22;1372;47.956;7.830;2023-11-21T16:17:12;9.50;99.90
2729;DHT22;1372;47.956;7.830;2023-11-21T16:19:45;9.50;99.90
2729;DHT22;1372;47.956;7.830;2023-11-21T16:22:14;9.50;99.90
2729;DHT22;1372;47.956;7.830;2023-11-21T16:24:43;9.60;99.90
2729;DHT22;1372;47.956;7.830;2023-11-21T16:27:12;9.60;99.90
2729;DHT22;1372;47.956;7.830;2023-11-21T16:29:43;9.60;99.90
2729;DHT22;1372;47.956;7.830;2023-11-21T16:32:17;9.60;99.90
2729;DHT22;1372;47.956;7.830;2023-11-21T16:34:47;9.50;99.90
2729;DHT22;1372;47.956;7.830;2023-11-21T16:37:17;9.50;99.90
2729;DHT22;1372;47.956;7.830;2023-11-21T16:39:46;9.50;99.90
2729;DHT22;1372;47.956;7.830;2023-11-21T16:42:17;9.60;99.90